sensor_id;sensor_type;location;lat;lon;timestamp;P1;durP1;ratioP1;P2;durP2;ratioP2
43919;SDS011;29578;51.946;5.874;2022-10-17T00:01:45;0.52;;;0.52;;
43919;SDS011;29578;51.946;5.874;2022-10-17T00:04:11;0.90;;;0.70;;
43919;SDS011;29578;51.946;5.874;2022-10-17T00:06:37;0.68;;;0.65;;
43919;SDS011;29578;51.946;5.874;2022-10-17T00:09:03;0.80;;;0.70;;
43919;SDS011;29578;51.946;5.874;2022-10-17T00:11:29;0.70;;;0.70;;
43919;SDS011;29578;51.946;5.874;2022-10-17T00:13:55;1.00;;;0.90;;
43919;SDS011;29578;51.946;5.874;2022-10-17T00:16:25;1.00;;;0.77;;
43919;SDS011;29578;51.946;5.874;2022-10-17T00:18:52;0.75;;;0.75;;
43919;SDS011;29578;51.946;5.874;2022-10-17T00:21:19;0.95;;;0.80;;
43919;SDS011;29578;51.946;5.874;2022-10-17T00:23:45;1.02;;;0.90;;
43919;SDS011;29578;51.946;5.874;2022-10-17T00:26:11;0.90;;;0.65;;
43919;SDS011;29578;51.946;5.874;2022-10-17T00:28:38;0.68;;;0.68;;
43919;SDS011;29578;51.946;5.874;2022-10-17T00:31:04;1.35;;;0.80;;
43919;SDS011;29578;51.946;5.874;2022-10-17T00:33:32;0.82;;;0.77;;
43919;SDS011;29578;51.946;5.874;2022-10-17T00:36:07;0.60;;;0.60;;
43919;SDS011;29578;51.946;5.874;2022-10-17T00:38:39;1.10;;;0.80;;
43919;SDS011;29578;51.946;5.874;2022-10-17T00:41:07;1.05;;;0.82;;
43919;SDS011;29578;51.946;5.874;2022-10-17T00:43:50;1.27;;;0.80;;
43919;SDS011;29578;51.946;5.874;2022-10-17T00:46:30;0.80;;;0.80;;
43919;SDS011;29578;51.946;5.874;2022-10-17T00:48:59;1.10;;;0.70;;
43919;SDS011;29578;51.946;5.874;2022-10-17T00:51:33;0.70;;;0.70;;
43919;SDS011;29578;51.946;5.874;2022-10-17T00:54:06;0.77;;;0.73;;
43919;SDS011;29578;51.946;5.874;2022-10-17T00:56:35;0.73;;;0.70;;
43919;SDS011;29578;51.946;5.874;2022-10-17T00:59:02;0.80;;;0.80;;
43919;SDS011;29578;51.946;5.874;2022-10-17T01:01:28;0.82;;;0.80;;
43919;SDS011;29578;51.946;5.874;2022-10-17T01:03:54;0.80;;;0.60;;
43919;SDS011;29578;51.946;5.874;2022-10-17T01:06:19;0.95;;;0.63;;
43919;SDS011;29578;51.946;5.874;2022-10-17T01:08:45;1.17;;;0.88;;
43919;SDS011;29578;51.946;5.874;2022-10-17T01:14:15;0.90;;;0.68;;
43919;SDS011;29578;51.946;5.874;2022-10-17T01:16:56;1.00;;;0.82;;
43919;SDS011;29578;51.946;5.874;2022-10-17T01:19:56;0.80;;;0.80;;
43919;SDS011;29578;51.946;5.874;2022-10-17T01:25:48;1.00;;;0.85;;
43919;SDS011;29578;51.946;5.874;2022-10-17T01:28:28;0.68;;;0.60;;
43919;SDS011;29578;51.946;5.874;2022-10-17T01:31:11;0.93;;;0.82;;
43919;SDS011;29578;51.946;5.874;2022-10-17T01:33:43;1.35;;;1.00;;
43919;SDS011;29578;51.946;5.874;2022-10-17T01:36:24;1.13;;;0.88;;
43919;SDS011;29578;51.946;5.874;2022-10-17T01:39:15;1.10;;;0.63;;
43919;SDS011;29578;51.946;5.874;2022-10-17T01:41:56;0.70;;;0.57;;
43919;SDS011;29578;51.946;5.874;2022-10-17T01:44:32;1.13;;;0.80;;
43919;SDS011;29578;51.946;5.874;2022-10-17T01:47:04;0.60;;;0.60;;
43919;SDS011;29578;51.946;5.874;2022-10-17T01:49:33;0.70;;;0.70;;
43919;SDS011;29578;51.946;5.874;2022-10-17T01:52:03;0.80;;;0.70;;
43919;SDS011;29578;51.946;5.874;2022-10-17T01:54:38;0.73;;;0.57;;
43919;SDS011;29578;51.946;5.874;2022-10-17T01:57:09;0.60;;;0.45;;
43919;SDS011;29578;51.946;5.874;2022-10-17T01:59:40;0.63;;;0.63;;
43919;SDS011;29578;51.946;5.874;2022-10-17T02:02:09;0.63;;;0.60;;
43919;SDS011;29578;51.946;5.874;2022-10-17T02:04:37;0.68;;;0.68;;
43919;SDS011;29578;51.946;5.874;2022-10-17T02:07:08;0.60;;;0.60;;
43919;SDS011;29578;51.946;5.874;2022-10-17T02:09:34;0.75;;;0.60;;
43919;SDS011;29578;51.946;5.874;2022-10-17T02:12:06;0.70;;;0.50;;
43919;SDS011;29578;51.946;5.874;2022-10-17T02:14:58;0.98;;;0.80;;
43919;SDS011;29578;51.946;5.874;2022-10-17T02:20:36;0.73;;;0.63;;
43919;SDS011;29578;51.946;5.874;2022-10-17T02:23:10;1.52;;;0.70;;
43919;SDS011;29578;51.946;5.874;2022-10-17T02:25:56;1.30;;;0.63;;
43919;SDS011;29578;51.946;5.874;2022-10-17T02:28:38;1.23;;;0.85;;
43919;SDS011;29578;51.946;5.874;2022-10-17T02:31:21;1.02;;;0.85;;
43919;SDS011;29578;51.946;5.874;2022-10-17T02:33:57;1.10;;;0.73;;
43919;SDS011;29578;51.946;5.874;2022-10-17T02:36:28;0.60;;;0.60;;
43919;SDS011;29578;51.946;5.874;2022-10-17T02:39:00;0.85;;;0.70;;
43919;SDS011;29578;51.946;5.874;2022-10-17T02:41:28;1.60;;;0.95;;
43919;SDS011;29578;51.946;5.874;2022-10-17T02:43:55;1.15;;;0.80;;
43919;SDS011;29578;51.946;5.874;2022-10-17T02:46:22;1.10;;;0.88;;
43919;SDS011;29578;51.946;5.874;2022-10-17T02:48:52;1.77;;;1.05;;
43919;SDS011;29578;51.946;5.874;2022-10-17T02:51:48;1.30;;;0.82;;
43919;SDS011;29578;51.946;5.874;2022-10-17T02:54:33;1.55;;;1.05;;
43919;SDS011;29578;51.946;5.874;2022-10-17T02:57:24;1.42;;;1.10;;
43919;SDS011;29578;51.946;5.874;2022-10-17T02:59:56;1.40;;;0.98;;
43919;SDS011;29578;51.946;5.874;2022-10-17T03:02:24;0.93;;;0.85;;
43919;SDS011;29578;51.946;5.874;2022-10-17T03:04:50;1.27;;;0.90;;
43919;SDS011;29578;51.946;5.874;2022-10-17T03:07:16;1.00;;;0.90;;
43919;SDS011;29578;51.946;5.874;2022-10-17T03:09:42;1.38;;;0.90;;
43919;SDS011;29578;51.946;5.874;2022-10-17T03:12:08;1.17;;;0.80;;
43919;SDS011;29578;51.946;5.874;2022-10-17T03:14:34;1.65;;;1.00;;
43919;SDS011;29578;51.946;5.874;2022-10-17T03:16:59;1.52;;;1.02;;
43919;SDS011;29578;51.946;5.874;2022-10-17T03:19:25;1.40;;;0.90;;
43919;SDS011;29578;51.946;5.874;2022-10-17T03:21:51;1.08;;;0.90;;
43919;SDS011;29578;51.946;5.874;2022-10-17T03:24:16;1.30;;;0.98;;
43919;SDS011;29578;51.946;5.874;2022-10-17T03:26:42;1.13;;;1.02;;
43919;SDS011;29578;51.946;5.874;2022-10-17T03:29:08;1.33;;;1.00;;
43919;SDS011;29578;51.946;5.874;2022-10-17T03:31:34;1.13;;;0.90;;
43919;SDS011;29578;51.946;5.874;2022-10-17T03:34:00;1.08;;;0.98;;
43919;SDS011;29578;51.946;5.874;2022-10-17T03:36:27;1.98;;;1.00;;
43919;SDS011;29578;51.946;5.874;2022-10-17T03:38:53;0.95;;;0.88;;
43919;SDS011;29578;51.946;5.874;2022-10-17T03:41:19;1.48;;;0.80;;
43919;SDS011;29578;51.946;5.874;2022-10-17T03:43:45;1.23;;;1.02;;
43919;SDS011;29578;51.946;5.874;2022-10-17T03:46:10;1.85;;;1.13;;
43919;SDS011;29578;51.946;5.874;2022-10-17T03:48:36;1.90;;;1.20;;
43919;SDS011;29578;51.946;5.874;2022-10-17T03:51:03;1.60;;;1.20;;
43919;SDS011;29578;51.946;5.874;2022-10-17T03:53:31;1.52;;;1.10;;
43919;SDS011;29578;51.946;5.874;2022-10-17T03:56:07;1.10;;;1.00;;
43919;SDS011;29578;51.946;5.874;2022-10-17T03:58:35;1.13;;;1.00;;
43919;SDS011;29578;51.946;5.874;2022-10-17T04:01:03;0.70;;;0.70;;
43919;SDS011;29578;51.946;5.874;2022-10-17T04:03:32;1.00;;;0.90;;
43919;SDS011;29578;51.946;5.874;2022-10-17T04:05:58;2.22;;;1.17;;
43919;SDS011;29578;51.946;5.874;2022-10-17T04:08:25;1.05;;;0.90;;
43919;SDS011;29578;51.946;5.874;2022-10-17T04:10:56;1.65;;;0.95;;
43919;SDS011;29578;51.946;5.874;2022-10-17T04:13:23;1.07;;;0.90;;
43919;SDS011;29578;51.946;5.874;2022-10-17T04:15:53;1.42;;;1.00;;
43919;SDS011;29578;51.946;5.874;2022-10-17T04:20:46;0.93;;;0.80;;
43919;SDS011;29578;51.946;5.874;2022-10-17T04:23:11;1.00;;;0.90;;
43919;SDS011;29578;51.946;5.874;2022-10-17T04:25:37;1.27;;;0.95;;
43919;SDS011;29578;51.946;5.874;2022-10-17T04:28:03;0.70;;;0.68;;
43919;SDS011;29578;51.946;5.874;2022-10-17T04:30:29;1.35;;;0.90;;
43919;SDS011;29578;51.946;5.874;2022-10-17T04:32:54;1.20;;;1.00;;
43919;SDS011;29578;51.946;5.874;2022-10-17T04:35:20;1.05;;;0.90;;
43919;SDS011;29578;51.946;5.874;2022-10-17T04:37:46;0.90;;;0.85;;
43919;SDS011;29578;51.946;5.874;2022-10-17T04:40:12;0.73;;;0.70;;
43919;SDS011;29578;51.946;5.874;2022-10-17T04:42:38;1.50;;;1.05;;
43919;SDS011;29578;51.946;5.874;2022-10-17T04:45:04;1.10;;;0.90;;
43919;SDS011;29578;51.946;5.874;2022-10-17T04:47:30;1.13;;;0.85;;
43919;SDS011;29578;51.946;5.874;2022-10-17T04:49:56;2.65;;;0.90;;
43919;SDS011;29578;51.946;5.874;2022-10-17T04:52:22;1.00;;;0.82;;
43919;SDS011;29578;51.946;5.874;2022-10-17T04:54:49;1.10;;;1.00;;
43919;SDS011;29578;51.946;5.874;2022-10-17T04:57:15;1.05;;;0.90;;
43919;SDS011;29578;51.946;5.874;2022-10-17T04:59:40;1.08;;;0.90;;
43919;SDS011;29578;51.946;5.874;2022-10-17T05:02:06;0.80;;;0.80;;
43919;SDS011;29578;51.946;5.874;2022-10-17T05:04:32;0.90;;;0.90;;
43919;SDS011;29578;51.946;5.874;2022-10-17T05:06:58;0.90;;;0.80;;
43919;SDS011;29578;51.946;5.874;2022-10-17T05:09:23;0.77;;;0.73;;
43919;SDS011;29578;51.946;5.874;2022-10-17T05:11:49;0.70;;;0.70;;
43919;SDS011;29578;51.946;5.874;2022-10-17T05:14:15;0.90;;;0.80;;
43919;SDS011;29578;51.946;5.874;2022-10-17T05:16:41;0.90;;;0.85;;
43919;SDS011;29578;51.946;5.874;2022-10-17T05:19:07;0.70;;;0.70;;
43919;SDS011;29578;51.946;5.874;2022-10-17T05:21:32;0.93;;;0.80;;
43919;SDS011;29578;51.946;5.874;2022-10-17T05:23:58;0.95;;;0.80;;
43919;SDS011;29578;51.946;5.874;2022-10-17T05:26:24;0.98;;;0.88;;
43919;SDS011;29578;51.946;5.874;2022-10-17T05:28:50;1.65;;;1.10;;
43919;SDS011;29578;51.946;5.874;2022-10-17T05:31:17;0.82;;;0.82;;
43919;SDS011;29578;51.946;5.874;2022-10-17T05:33:43;1.30;;;0.90;;
43919;SDS011;29578;51.946;5.874;2022-10-17T05:36:09;2.40;;;0.75;;
43919;SDS011;29578;51.946;5.874;2022-10-17T05:38:34;1.10;;;1.00;;
43919;SDS011;29578;51.946;5.874;2022-10-17T05:41:01;1.17;;;1.08;;
43919;SDS011;29578;51.946;5.874;2022-10-17T05:43:28;1.23;;;1.00;;
43919;SDS011;29578;51.946;5.874;2022-10-17T05:45:54;0.90;;;0.77;;
43919;SDS011;29578;51.946;5.874;2022-10-17T05:48:21;1.25;;;1.00;;
43919;SDS011;29578;51.946;5.874;2022-10-17T05:50:48;1.05;;;0.90;;
43919;SDS011;29578;51.946;5.874;2022-10-17T05:53:14;1.33;;;0.82;;
43919;SDS011;29578;51.946;5.874;2022-10-17T05:55:40;1.02;;;0.93;;
43919;SDS011;29578;51.946;5.874;2022-10-17T05:58:06;1.00;;;0.88;;
43919;SDS011;29578;51.946;5.874;2022-10-17T06:00:31;1.08;;;0.98;;
43919;SDS011;29578;51.946;5.874;2022-10-17T06:02:57;1.70;;;0.93;;
43919;SDS011;29578;51.946;5.874;2022-10-17T06:05:23;0.82;;;0.70;;
43919;SDS011;29578;51.946;5.874;2022-10-17T06:07:48;1.00;;;0.90;;
43919;SDS011;29578;51.946;5.874;2022-10-17T06:10:16;0.85;;;0.75;;
43919;SDS011;29578;51.946;5.874;2022-10-17T06:12:43;1.20;;;0.90;;
43919;SDS011;29578;51.946;5.874;2022-10-17T06:15:09;0.98;;;0.88;;
43919;SDS011;29578;51.946;5.874;2022-10-17T06:17:36;0.95;;;0.80;;
43919;SDS011;29578;51.946;5.874;2022-10-17T06:20:02;0.98;;;0.80;;
43919;SDS011;29578;51.946;5.874;2022-10-17T06:22:28;1.00;;;0.90;;
43919;SDS011;29578;51.946;5.874;2022-10-17T06:24:54;2.25;;;0.82;;
43919;SDS011;29578;51.946;5.874;2022-10-17T06:27:20;1.08;;;0.77;;
43919;SDS011;29578;51.946;5.874;2022-10-17T06:29:46;0.77;;;0.77;;
43919;SDS011;29578;51.946;5.874;2022-10-17T06:32:12;1.10;;;1.00;;
43919;SDS011;29578;51.946;5.874;2022-10-17T06:34:38;1.70;;;1.00;;
43919;SDS011;29578;51.946;5.874;2022-10-17T06:37:04;1.33;;;0.85;;
43919;SDS011;29578;51.946;5.874;2022-10-17T06:39:30;0.88;;;0.77;;
43919;SDS011;29578;51.946;5.874;2022-10-17T06:41:58;1.08;;;0.98;;
43919;SDS011;29578;51.946;5.874;2022-10-17T06:44:25;1.13;;;0.90;;
43919;SDS011;29578;51.946;5.874;2022-10-17T06:46:55;1.40;;;0.95;;
43919;SDS011;29578;51.946;5.874;2022-10-17T06:49:21;1.00;;;0.90;;
43919;SDS011;29578;51.946;5.874;2022-10-17T06:51:47;0.95;;;0.80;;
43919;SDS011;29578;51.946;5.874;2022-10-17T06:54:13;1.33;;;0.93;;
43919;SDS011;29578;51.946;5.874;2022-10-17T06:56:39;1.65;;;0.90;;
43919;SDS011;29578;51.946;5.874;2022-10-17T06:59:05;1.70;;;0.98;;
43919;SDS011;29578;51.946;5.874;2022-10-17T07:01:31;0.73;;;0.73;;
43919;SDS011;29578;51.946;5.874;2022-10-17T07:03:58;1.83;;;0.90;;
43919;SDS011;29578;51.946;5.874;2022-10-17T07:06:24;0.90;;;0.82;;
43919;SDS011;29578;51.946;5.874;2022-10-17T07:08:53;1.00;;;0.90;;
43919;SDS011;29578;51.946;5.874;2022-10-17T07:11:47;0.60;;;0.60;;
43919;SDS011;29578;51.946;5.874;2022-10-17T07:14:19;0.80;;;0.80;;
43919;SDS011;29578;51.946;5.874;2022-10-17T07:16:44;0.88;;;0.80;;
43919;SDS011;29578;51.946;5.874;2022-10-17T07:19:10;0.90;;;0.90;;
43919;SDS011;29578;51.946;5.874;2022-10-17T07:21:36;1.85;;;1.20;;
43919;SDS011;29578;51.946;5.874;2022-10-17T07:24:02;1.27;;;1.02;;
43919;SDS011;29578;51.946;5.874;2022-10-17T07:26:28;1.02;;;0.95;;
43919;SDS011;29578;51.946;5.874;2022-10-17T07:28:54;1.20;;;1.10;;
43919;SDS011;29578;51.946;5.874;2022-10-17T07:31:20;1.08;;;0.90;;
43919;SDS011;29578;51.946;5.874;2022-10-17T07:33:47;1.10;;;1.00;;
43919;SDS011;29578;51.946;5.874;2022-10-17T07:36:13;1.23;;;1.08;;
43919;SDS011;29578;51.946;5.874;2022-10-17T07:38:41;2.05;;;1.10;;
43919;SDS011;29578;51.946;5.874;2022-10-17T07:41:07;1.25;;;1.13;;
43919;SDS011;29578;51.946;5.874;2022-10-17T07:43:35;2.33;;;1.40;;
43919;SDS011;29578;51.946;5.874;2022-10-17T07:46:01;1.80;;;1.30;;
43919;SDS011;29578;51.946;5.874;2022-10-17T07:48:28;2.25;;;1.50;;
43919;SDS011;29578;51.946;5.874;2022-10-17T07:50:54;1.30;;;1.10;;
43919;SDS011;29578;51.946;5.874;2022-10-17T07:53:20;1.60;;;1.17;;
43919;SDS011;29578;51.946;5.874;2022-10-17T07:55:46;1.50;;;1.20;;
43919;SDS011;29578;51.946;5.874;2022-10-17T08:16:16;3.22;;;1.25;;
43919;SDS011;29578;51.946;5.874;2022-10-17T08:19:29;1.63;;;1.30;;
43919;SDS011;29578;51.946;5.874;2022-10-17T08:22:38;1.85;;;1.20;;
43919;SDS011;29578;51.946;5.874;2022-10-17T08:28:52;3.67;;;1.80;;
43919;SDS011;29578;51.946;5.874;2022-10-17T08:39:09;3.83;;;1.90;;
43919;SDS011;29578;51.946;5.874;2022-10-17T08:52:38;1.25;;;1.15;;
43919;SDS011;29578;51.946;5.874;2022-10-17T09:16:37;2.97;;;1.83;;
43919;SDS011;29578;51.946;5.874;2022-10-17T09:19:27;2.42;;;1.40;;
43919;SDS011;29578;51.946;5.874;2022-10-17T09:22:36;2.17;;;1.48;;
43919;SDS011;29578;51.946;5.874;2022-10-17T09:32:25;1.63;;;1.10;;
43919;SDS011;29578;51.946;5.874;2022-10-17T09:42:48;2.33;;;1.00;;
43919;SDS011;29578;51.946;5.874;2022-10-17T09:52:33;0.90;;;0.80;;
43919;SDS011;29578;51.946;5.874;2022-10-17T09:58:41;2.35;;;0.95;;
43919;SDS011;29578;51.946;5.874;2022-10-17T10:04:14;1.10;;;1.00;;
43919;SDS011;29578;51.946;5.874;2022-10-17T10:16:29;0.77;;;0.77;;
43919;SDS011;29578;51.946;5.874;2022-10-17T10:22:39;0.70;;;0.60;;
43919;SDS011;29578;51.946;5.874;2022-10-17T10:29:54;0.90;;;0.90;;
43919;SDS011;29578;51.946;5.874;2022-10-17T10:32:23;0.85;;;0.73;;
43919;SDS011;29578;51.946;5.874;2022-10-17T10:34:53;0.90;;;0.70;;
43919;SDS011;29578;51.946;5.874;2022-10-17T10:41:48;1.17;;;1.05;;
43919;SDS011;29578;51.946;5.874;2022-10-17T10:44:28;0.75;;;0.70;;
43919;SDS011;29578;51.946;5.874;2022-10-17T10:47:50;1.55;;;0.70;;
43919;SDS011;29578;51.946;5.874;2022-10-17T10:55:55;1.00;;;0.90;;
43919;SDS011;29578;51.946;5.874;2022-10-17T10:58:31;1.02;;;0.90;;
43919;SDS011;29578;51.946;5.874;2022-10-17T11:01:05;1.10;;;0.63;;
43919;SDS011;29578;51.946;5.874;2022-10-17T11:07:21;1.10;;;0.93;;
43919;SDS011;29578;51.946;5.874;2022-10-17T11:10:02;0.70;;;0.70;;
43919;SDS011;29578;51.946;5.874;2022-10-17T11:13:20;0.60;;;0.60;;
43919;SDS011;29578;51.946;5.874;2022-10-17T12:58:05;1.10;;;1.00;;
43919;SDS011;29578;51.946;5.874;2022-10-17T13:18:25;1.50;;;1.08;;
43919;SDS011;29578;51.946;5.874;2022-10-17T13:20:54;1.80;;;1.20;;
43919;SDS011;29578;51.946;5.874;2022-10-17T13:23:23;1.48;;;1.20;;
43919;SDS011;29578;51.946;5.874;2022-10-17T13:26:06;1.80;;;1.35;;
43919;SDS011;29578;51.946;5.874;2022-10-17T13:31:40;1.73;;;1.23;;
43919;SDS011;29578;51.946;5.874;2022-10-17T13:34:16;1.17;;;1.08;;
43919;SDS011;29578;51.946;5.874;2022-10-17T13:36:44;1.17;;;1.05;;
43919;SDS011;29578;51.946;5.874;2022-10-17T13:39:13;1.63;;;1.17;;
43919;SDS011;29578;51.946;5.874;2022-10-17T13:41:42;1.57;;;1.30;;
43919;SDS011;29578;51.946;5.874;2022-10-17T13:44:13;1.38;;;1.27;;
43919;SDS011;29578;51.946;5.874;2022-10-17T13:46:42;1.95;;;1.40;;
43919;SDS011;29578;51.946;5.874;2022-10-17T13:49:14;1.48;;;1.30;;
43919;SDS011;29578;51.946;5.874;2022-10-17T13:51:47;2.40;;;1.50;;
43919;SDS011;29578;51.946;5.874;2022-10-17T13:54:17;1.75;;;1.27;;
43919;SDS011;29578;51.946;5.874;2022-10-17T13:56:55;2.35;;;1.30;;
43919;SDS011;29578;51.946;5.874;2022-10-17T13:59:22;1.88;;;1.27;;
43919;SDS011;29578;51.946;5.874;2022-10-17T14:01:51;1.38;;;1.27;;
43919;SDS011;29578;51.946;5.874;2022-10-17T14:04:19;1.25;;;1.15;;
43919;SDS011;29578;51.946;5.874;2022-10-17T14:06:45;1.48;;;1.27;;
43919;SDS011;29578;51.946;5.874;2022-10-17T14:09:27;1.75;;;1.20;;
43919;SDS011;29578;51.946;5.874;2022-10-17T14:11:56;1.77;;;1.27;;
43919;SDS011;29578;51.946;5.874;2022-10-17T14:14:25;1.73;;;1.30;;
43919;SDS011;29578;51.946;5.874;2022-10-17T14:16:53;1.98;;;1.40;;
43919;SDS011;29578;51.946;5.874;2022-10-17T14:24:39;1.30;;;1.20;;
43919;SDS011;29578;51.946;5.874;2022-10-17T14:29:53;2.13;;;1.13;;
43919;SDS011;29578;51.946;5.874;2022-10-17T14:32:22;1.65;;;1.10;;
43919;SDS011;29578;51.946;5.874;2022-10-17T14:34:51;1.40;;;1.30;;
43919;SDS011;29578;51.946;5.874;2022-10-17T14:37:29;3.03;;;1.60;;
43919;SDS011;29578;51.946;5.874;2022-10-17T14:45:21;1.67;;;1.38;;
43919;SDS011;29578;51.946;5.874;2022-10-17T14:47:51;1.33;;;1.23;;
43919;SDS011;29578;51.946;5.874;2022-10-17T14:50:22;2.33;;;1.45;;
43919;SDS011;29578;51.946;5.874;2022-10-17T14:56:01;1.98;;;1.42;;
43919;SDS011;29578;51.946;5.874;2022-10-17T14:58:31;1.10;;;1.00;;
43919;SDS011;29578;51.946;5.874;2022-10-17T15:00:58;1.67;;;1.20;;
43919;SDS011;29578;51.946;5.874;2022-10-17T15:03:25;1.92;;;1.52;;
43919;SDS011;29578;51.946;5.874;2022-10-17T15:05:51;2.20;;;1.58;;
43919;SDS011;29578;51.946;5.874;2022-10-17T15:08:20;1.70;;;1.40;;
43919;SDS011;29578;51.946;5.874;2022-10-17T15:10:48;1.80;;;1.45;;
43919;SDS011;29578;51.946;5.874;2022-10-17T15:13:15;2.50;;;1.90;;
43919;SDS011;29578;51.946;5.874;2022-10-17T15:15:41;1.98;;;1.50;;
43919;SDS011;29578;51.946;5.874;2022-10-17T15:18:09;3.15;;;1.55;;
43919;SDS011;29578;51.946;5.874;2022-10-17T15:20:36;2.05;;;1.60;;
43919;SDS011;29578;51.946;5.874;2022-10-17T15:23:02;1.50;;;1.40;;
43919;SDS011;29578;51.946;5.874;2022-10-17T15:25:29;1.65;;;1.52;;
43919;SDS011;29578;51.946;5.874;2022-10-17T15:27:56;2.05;;;1.73;;
43919;SDS011;29578;51.946;5.874;2022-10-17T15:30:23;2.08;;;1.55;;
43919;SDS011;29578;51.946;5.874;2022-10-17T15:32:51;1.73;;;1.50;;
43919;SDS011;29578;51.946;5.874;2022-10-17T15:35:17;2.13;;;1.52;;
43919;SDS011;29578;51.946;5.874;2022-10-17T15:37:44;2.75;;;1.80;;
43919;SDS011;29578;51.946;5.874;2022-10-17T15:40:19;2.15;;;1.50;;
43919;SDS011;29578;51.946;5.874;2022-10-17T15:42:47;1.65;;;1.40;;
43919;SDS011;29578;51.946;5.874;2022-10-17T15:45:14;1.63;;;1.40;;
43919;SDS011;29578;51.946;5.874;2022-10-17T15:47:42;1.50;;;1.38;;
43919;SDS011;29578;51.946;5.874;2022-10-17T15:50:12;2.58;;;1.55;;
43919;SDS011;29578;51.946;5.874;2022-10-17T15:52:39;2.15;;;1.50;;
43919;SDS011;29578;51.946;5.874;2022-10-17T15:55:06;1.42;;;1.30;;
43919;SDS011;29578;51.946;5.874;2022-10-17T15:57:36;1.70;;;1.38;;
43919;SDS011;29578;51.946;5.874;2022-10-17T16:00:06;2.20;;;1.50;;
43919;SDS011;29578;51.946;5.874;2022-10-17T16:02:39;2.25;;;1.70;;
43919;SDS011;29578;51.946;5.874;2022-10-17T16:05:12;1.75;;;1.40;;
43919;SDS011;29578;51.946;5.874;2022-10-17T16:07:42;1.77;;;1.40;;
43919;SDS011;29578;51.946;5.874;2022-10-17T16:10:10;2.25;;;1.67;;
43919;SDS011;29578;51.946;5.874;2022-10-17T16:12:37;2.45;;;1.75;;
43919;SDS011;29578;51.946;5.874;2022-10-17T16:15:07;1.45;;;1.30;;
43919;SDS011;29578;51.946;5.874;2022-10-17T16:17:39;3.08;;;2.13;;
43919;SDS011;29578;51.946;5.874;2022-10-17T16:20:05;2.42;;;1.90;;
43919;SDS011;29578;51.946;5.874;2022-10-17T16:22:32;2.47;;;1.80;;
43919;SDS011;29578;51.946;5.874;2022-10-17T16:25:02;3.03;;;1.88;;
43919;SDS011;29578;51.946;5.874;2022-10-17T16:27:34;2.05;;;1.60;;
43919;SDS011;29578;51.946;5.874;2022-10-17T16:30:01;1.98;;;1.63;;
43919;SDS011;29578;51.946;5.874;2022-10-17T16:32:29;2.15;;;1.35;;
43919;SDS011;29578;51.946;5.874;2022-10-17T16:34:59;2.22;;;1.80;;
43919;SDS011;29578;51.946;5.874;2022-10-17T16:37:25;2.03;;;1.48;;
43919;SDS011;29578;51.946;5.874;2022-10-17T16:39:51;2.88;;;1.90;;
43919;SDS011;29578;51.946;5.874;2022-10-17T16:42:19;2.58;;;1.90;;
43919;SDS011;29578;51.946;5.874;2022-10-17T16:44:45;2.08;;;1.45;;
43919;SDS011;29578;51.946;5.874;2022-10-17T16:47:11;2.17;;;1.50;;
43919;SDS011;29578;51.946;5.874;2022-10-17T16:49:37;3.30;;;2.13;;
43919;SDS011;29578;51.946;5.874;2022-10-17T16:52:03;3.05;;;1.95;;
43919;SDS011;29578;51.946;5.874;2022-10-17T16:54:29;2.95;;;2.00;;
43919;SDS011;29578;51.946;5.874;2022-10-17T16:56:55;3.70;;;2.13;;
43919;SDS011;29578;51.946;5.874;2022-10-17T16:59:22;2.67;;;1.90;;
43919;SDS011;29578;51.946;5.874;2022-10-17T17:01:48;2.13;;;1.85;;
43919;SDS011;29578;51.946;5.874;2022-10-17T17:04:14;2.90;;;2.10;;
43919;SDS011;29578;51.946;5.874;2022-10-17T17:06:40;2.75;;;1.75;;
43919;SDS011;29578;51.946;5.874;2022-10-17T17:09:06;2.50;;;1.50;;
43919;SDS011;29578;51.946;5.874;2022-10-17T17:11:33;2.05;;;1.60;;
43919;SDS011;29578;51.946;5.874;2022-10-17T17:14:01;2.50;;;1.60;;
43919;SDS011;29578;51.946;5.874;2022-10-17T17:16:28;2.95;;;1.75;;
43919;SDS011;29578;51.946;5.874;2022-10-17T17:18:56;2.78;;;1.92;;
43919;SDS011;29578;51.946;5.874;2022-10-17T17:21:27;2.70;;;1.83;;
43919;SDS011;29578;51.946;5.874;2022-10-17T17:23:53;2.25;;;1.77;;
43919;SDS011;29578;51.946;5.874;2022-10-17T17:26:23;2.70;;;1.95;;
43919;SDS011;29578;51.946;5.874;2022-10-17T17:28:49;2.67;;;1.88;;
43919;SDS011;29578;51.946;5.874;2022-10-17T17:31:19;1.92;;;1.48;;
43919;SDS011;29578;51.946;5.874;2022-10-17T17:33:46;2.45;;;1.75;;
43919;SDS011;29578;51.946;5.874;2022-10-17T17:36:13;2.30;;;1.70;;
43919;SDS011;29578;51.946;5.874;2022-10-17T17:38:42;2.38;;;1.60;;
43919;SDS011;29578;51.946;5.874;2022-10-17T17:41:10;2.17;;;1.48;;
43919;SDS011;29578;51.946;5.874;2022-10-17T17:43:37;2.15;;;1.58;;
43919;SDS011;29578;51.946;5.874;2022-10-17T17:46:04;2.20;;;1.60;;
43919;SDS011;29578;51.946;5.874;2022-10-17T17:48:30;2.72;;;1.40;;
43919;SDS011;29578;51.946;5.874;2022-10-17T17:50:55;2.70;;;1.77;;
43919;SDS011;29578;51.946;5.874;2022-10-17T17:53:21;2.65;;;1.70;;
43919;SDS011;29578;51.946;5.874;2022-10-17T17:55:47;3.47;;;1.63;;
43919;SDS011;29578;51.946;5.874;2022-10-17T17:58:33;1.90;;;1.55;;
43919;SDS011;29578;51.946;5.874;2022-10-17T18:00:59;1.98;;;1.42;;
43919;SDS011;29578;51.946;5.874;2022-10-17T18:03:32;2.60;;;1.98;;
43919;SDS011;29578;51.946;5.874;2022-10-17T18:05:57;2.65;;;1.98;;
43919;SDS011;29578;51.946;5.874;2022-10-17T18:08:23;3.15;;;1.90;;
43919;SDS011;29578;51.946;5.874;2022-10-17T18:10:49;3.55;;;2.30;;
43919;SDS011;29578;51.946;5.874;2022-10-17T18:13:18;3.22;;;2.20;;
43919;SDS011;29578;51.946;5.874;2022-10-17T18:15:44;2.80;;;1.95;;
43919;SDS011;29578;51.946;5.874;2022-10-17T18:18:11;3.25;;;2.30;;
43919;SDS011;29578;51.946;5.874;2022-10-17T18:20:38;3.03;;;2.00;;
43919;SDS011;29578;51.946;5.874;2022-10-17T18:23:05;3.17;;;2.20;;
43919;SDS011;29578;51.946;5.874;2022-10-17T18:25:31;3.25;;;1.90;;
43919;SDS011;29578;51.946;5.874;2022-10-17T18:27:57;3.53;;;2.50;;
43919;SDS011;29578;51.946;5.874;2022-10-17T18:30:23;3.70;;;2.15;;
43919;SDS011;29578;51.946;5.874;2022-10-17T18:32:48;1.80;;;1.58;;
43919;SDS011;29578;51.946;5.874;2022-10-17T18:35:14;2.70;;;1.92;;
43919;SDS011;29578;51.946;5.874;2022-10-17T18:37:40;4.05;;;2.30;;
43919;SDS011;29578;51.946;5.874;2022-10-17T18:40:06;2.67;;;1.92;;
43919;SDS011;29578;51.946;5.874;2022-10-17T18:42:32;3.47;;;2.30;;
43919;SDS011;29578;51.946;5.874;2022-10-17T18:44:58;3.00;;;2.00;;
43919;SDS011;29578;51.946;5.874;2022-10-17T18:47:23;2.83;;;1.98;;
43919;SDS011;29578;51.946;5.874;2022-10-17T18:49:49;3.28;;;2.00;;
43919;SDS011;29578;51.946;5.874;2022-10-17T18:52:15;2.65;;;1.60;;
43919;SDS011;29578;51.946;5.874;2022-10-17T18:54:41;2.67;;;1.92;;
43919;SDS011;29578;51.946;5.874;2022-10-17T18:57:06;2.80;;;2.00;;
43919;SDS011;29578;51.946;5.874;2022-10-17T18:59:32;4.03;;;2.58;;
43919;SDS011;29578;51.946;5.874;2022-10-17T19:01:58;3.78;;;2.05;;
43919;SDS011;29578;51.946;5.874;2022-10-17T19:04:24;4.13;;;2.47;;
43919;SDS011;29578;51.946;5.874;2022-10-17T19:06:50;3.40;;;2.05;;
43919;SDS011;29578;51.946;5.874;2022-10-17T19:09:16;2.88;;;2.22;;
43919;SDS011;29578;51.946;5.874;2022-10-17T19:11:41;4.00;;;2.50;;
43919;SDS011;29578;51.946;5.874;2022-10-17T19:14:08;2.75;;;2.13;;
43919;SDS011;29578;51.946;5.874;2022-10-17T19:16:39;2.42;;;1.90;;
43919;SDS011;29578;51.946;5.874;2022-10-17T19:19:11;2.55;;;1.85;;
43919;SDS011;29578;51.946;5.874;2022-10-17T19:21:39;2.72;;;1.92;;
43919;SDS011;29578;51.946;5.874;2022-10-17T19:24:06;3.92;;;2.10;;
43919;SDS011;29578;51.946;5.874;2022-10-17T19:26:36;3.33;;;2.00;;
43919;SDS011;29578;51.946;5.874;2022-10-17T19:29:03;3.30;;;2.28;;
43919;SDS011;29578;51.946;5.874;2022-10-17T19:31:29;3.72;;;2.42;;
43919;SDS011;29578;51.946;5.874;2022-10-17T19:33:55;3.47;;;2.13;;
43919;SDS011;29578;51.946;5.874;2022-10-17T19:36:24;3.20;;;2.17;;